sensor_id;sensor_type;location;lat;lon;timestamp;pressure;altitude;pressure_sealevel;temperature;humidity
71601;BME280;59446;52.192;4.628;2022-12-28T00:01:45;101400.53;;;16.71;50.93
71601;BME280;59446;52.192;4.628;2022-12-28T00:04:13;101389.09;;;16.72;50.79
71601;BME280;59446;52.192;4.628;2022-12-28T00:06:39;101397.00;;;16.72;50.73
71601;BME280;59446;52.192;4.628;2022-12-28T00:09:05;101384.97;;;16.66;51.19
71601;BME280;59446;52.192;4.628;2022-12-28T00:11:30;101379.88;;;16.63;50.98
71601;BME280;59446;52.192;4.628;2022-12-28T00:13:57;101377.28;;;16.62;51.02
71601;BME280;59446;52.192;4.628;2022-12-28T00:16:31;101356.06;;;16.66;50.87
71601;BME280;59446;52.192;4.628;2022-12-28T00:18:59;101355.38;;;16.61;50.79
71601;BME280;59446;52.192;4.628;2022-12-28T00:21:25;101346.66;;;16.61;51.34
71601;BME280;59446;52.192;4.628;2022-12-28T00:23:52;101344.81;;;16.63;51.23
71601;BME280;59446;52.192;4.628;2022-12-28T00:26:19;101341.34;;;16.62;50.42
71601;BME280;59446;52.192;4.628;2022-12-28T00:28:44;101326.47;;;16.61;50.95
71601;BME280;59446;52.192;4.628;2022-12-28T00:31:10;101327.53;;;16.57;51.27
71601;BME280;59446;52.192;4.628;2022-12-28T00:33:35;101329.31;;;16.57;51.51
71601;BME280;59446;52.192;4.628;2022-12-28T00:36:01;101329.22;;;16.58;51.44
71601;BME280;59446;52.192;4.628;2022-12-28T00:38:28;101334.69;;;16.54;51.57
71601;BME280;59446;52.192;4.628;2022-12-28T00:40:56;101325.94;;;16.53;51.32
71601;BME280;59446;52.192;4.628;2022-12-28T00:43:21;101307.53;;;16.53;50.93
71601;BME280;59446;52.192;4.628;2022-12-28T00:45:47;101296.16;;;16.53;51.66
71601;BME280;59446;52.192;4.628;2022-12-28T00:48:13;101300.66;;;16.51;51.50
71601;BME280;59446;52.192;4.628;2022-12-28T00:50:39;101284.94;;;16.49;51.75
71601;BME280;59446;52.192;4.628;2022-12-28T00:53:05;101280.75;;;16.45;51.59
71601;BME280;59446;52.192;4.628;2022-12-28T00:55:34;101277.97;;;16.48;51.59
71601;BME280;59446;52.192;4.628;2022-12-28T00:58:01;101283.38;;;16.45;51.00
71601;BME280;59446;52.192;4.628;2022-12-28T01:00:27;101278.19;;;16.44;51.21
71601;BME280;59446;52.192;4.628;2022-12-28T01:02:53;101275.56;;;16.44;51.60
71601;BME280;59446;52.192;4.628;2022-12-28T01:05:19;101294.81;;;16.44;51.13
71601;BME280;59446;52.192;4.628;2022-12-28T01:07:44;101273.09;;;16.41;51.51
71601;BME280;59446;52.192;4.628;2022-12-28T01:10:10;101271.38;;;16.40;51.07
71601;BME280;59446;52.192;4.628;2022-12-28T01:12:36;101267.81;;;16.41;51.31
71601;BME280;59446;52.192;4.628;2022-12-28T01:15:06;101253.97;;;16.37;51.28
71601;BME280;59446;52.192;4.628;2022-12-28T01:17:32;101254.63;;;16.42;51.22
71601;BME280;59446;52.192;4.628;2022-12-28T01:19:57;101245.88;;;16.42;51.71
71601;BME280;59446;52.192;4.628;2022-12-28T01:22:25;101241.63;;;16.39;50.84
71601;BME280;59446;52.192;4.628;2022-12-28T01:24:50;101235.50;;;16.39;51.43
71601;BME280;59446;52.192;4.628;2022-12-28T01:27:16;101229.53;;;16.35;51.40
71601;BME280;59446;52.192;4.628;2022-12-28T01:29:41;101232.97;;;16.37;51.22
71601;BME280;59446;52.192;4.628;2022-12-28T01:32:06;101241.88;;;16.33;51.38
71601;BME280;59446;52.192;4.628;2022-12-28T01:34:32;101230.47;;;16.34;51.50
71601;BME280;59446;52.192;4.628;2022-12-28T01:36:57;101230.59;;;16.31;51.50
71601;BME280;59446;52.192;4.628;2022-12-28T01:39:22;101216.66;;;16.29;51.22
71601;BME280;59446;52.192;4.628;2022-12-28T01:41:48;101217.53;;;16.29;51.34
71601;BME280;59446;52.192;4.628;2022-12-28T01:47:03;101214.81;;;16.31;51.87
71601;BME280;59446;52.192;4.628;2022-12-28T01:49:37;101201.81;;;16.28;51.49
71601;BME280;59446;52.192;4.628;2022-12-28T01:52:13;101202.81;;;16.25;51.47
71601;BME280;59446;52.192;4.628;2022-12-28T01:54:52;101197.28;;;16.31;51.52
71601;BME280;59446;52.192;4.628;2022-12-28T01:57:20;101200.03;;;16.28;51.66
71601;BME280;59446;52.192;4.628;2022-12-28T01:59:53;101186.22;;;16.25;51.54
71601;BME280;59446;52.192;4.628;2022-12-28T02:02:20;101191.47;;;16.25;51.37
71601;BME280;59446;52.192;4.628;2022-12-28T02:04:46;101177.41;;;16.26;51.23
71601;BME280;59446;52.192;4.628;2022-12-28T02:07:19;101172.13;;;16.26;51.59
71601;BME280;59446;52.192;4.628;2022-12-28T02:09:47;101185.34;;;16.24;51.68
71601;BME280;59446;52.192;4.628;2022-12-28T02:12:15;101165.34;;;16.22;51.82
71601;BME280;59446;52.192;4.628;2022-12-28T02:14:42;101176.69;;;16.22;51.81
71601;BME280;59446;52.192;4.628;2022-12-28T02:17:08;101173.28;;;16.20;51.45
71601;BME280;59446;52.192;4.628;2022-12-28T02:19:52;101151.41;;;16.20;51.93
71601;BME280;59446;52.192;4.628;2022-12-28T02:22:44;101151.41;;;16.20;51.72
71601;BME280;59446;52.192;4.628;2022-12-28T02:28:01;101139.28;;;16.17;51.49
71601;BME280;59446;52.192;4.628;2022-12-28T02:30:34;101150.72;;;16.16;51.93
71601;BME280;59446;52.192;4.628;2022-12-28T02:33:17;101141.28;;;16.12;51.41
71601;BME280;59446;52.192;4.628;2022-12-28T02:36:00;101138.56;;;16.14;52.05
71601;BME280;59446;52.192;4.628;2022-12-28T02:38:53;101137.72;;;16.13;52.08
71601;BME280;59446;52.192;4.628;2022-12-28T02:41:22;101129.91;;;16.12;51.88
71601;BME280;59446;52.192;4.628;2022-12-28T02:43:48;101102.56;;;16.16;52.01
71601;BME280;59446;52.192;4.628;2022-12-28T02:46:23;101128.13;;;16.12;51.30
71601;BME280;59446;52.192;4.628;2022-12-28T02:49:23;101118.66;;;16.08;51.73
71601;BME280;59446;52.192;4.628;2022-12-28T03:02:19;101123.16;;;16.06;51.63
71601;BME280;59446;52.192;4.628;2022-12-28T03:07:26;101121.53;;;16.03;52.18
71601;BME280;59446;52.192;4.628;2022-12-28T03:13:22;101137.56;;;15.97;51.69
71601;BME280;59446;52.192;4.628;2022-12-28T03:18:42;101139.41;;;15.95;51.80
71601;BME280;59446;52.192;4.628;2022-12-28T03:21:29;101124.28;;;16.00;51.94
71601;BME280;59446;52.192;4.628;2022-12-28T03:24:16;101134.66;;;16.03;52.13
71601;BME280;59446;52.192;4.628;2022-12-28T03:27:03;101124.59;;;15.94;52.04
71601;BME280;59446;52.192;4.628;2022-12-28T03:29:58;101118.25;;;15.98;51.47
71601;BME280;59446;52.192;4.628;2022-12-28T03:32:45;101110.38;;;15.98;51.46
71601;BME280;59446;52.192;4.628;2022-12-28T03:35:12;101117.47;;;15.96;51.84
71601;BME280;59446;52.192;4.628;2022-12-28T03:37:45;101116.72;;;15.94;51.95
71601;BME280;59446;52.192;4.628;2022-12-28T03:40:46;101110.53;;;15.95;52.05
71601;BME280;59446;52.192;4.628;2022-12-28T03:43:21;101106.34;;;15.91;51.87
71601;BME280;59446;52.192;4.628;2022-12-28T03:46:20;101107.19;;;15.92;52.17
71601;BME280;59446;52.192;4.628;2022-12-28T03:48:47;101109.91;;;15.90;52.21
71601;BME280;59446;52.192;4.628;2022-12-28T03:51:15;101101.88;;;15.93;51.96
71601;BME280;59446;52.192;4.628;2022-12-28T03:53:45;101094.06;;;15.92;52.11
71601;BME280;59446;52.192;4.628;2022-12-28T03:56:19;101096.88;;;15.87;52.26
71601;BME280;59446;52.192;4.628;2022-12-28T03:58:45;101094.13;;;15.90;52.05
71601;BME280;59446;52.192;4.628;2022-12-28T04:01:10;101083.56;;;15.92;52.17
71601;BME280;59446;52.192;4.628;2022-12-28T04:03:36;101075.84;;;15.89;52.21
71601;BME280;59446;52.192;4.628;2022-12-28T04:06:01;101077.66;;;15.87;51.73
71601;BME280;59446;52.192;4.628;2022-12-28T04:08:27;101075.88;;;15.87;51.84
71601;BME280;59446;52.192;4.628;2022-12-28T04:10:53;101065.53;;;15.84;51.89
71601;BME280;59446;52.192;4.628;2022-12-28T04:13:18;101058.56;;;15.83;51.97
71601;BME280;59446;52.192;4.628;2022-12-28T04:15:54;101065.53;;;15.84;52.31
71601;BME280;59446;52.192;4.628;2022-12-28T04:18:20;101067.38;;;15.82;52.45
71601;BME280;59446;52.192;4.628;2022-12-28T04:20:45;101061.19;;;15.83;52.07
71601;BME280;59446;52.192;4.628;2022-12-28T04:23:10;101062.13;;;15.82;51.93
71601;BME280;59446;52.192;4.628;2022-12-28T04:25:36;101065.66;;;15.81;52.36
71601;BME280;59446;52.192;4.628;2022-12-28T04:28:01;101065.53;;;15.84;52.25
71601;BME280;59446;52.192;4.628;2022-12-28T04:30:26;101064.88;;;15.79;52.60
71601;BME280;59446;52.192;4.628;2022-12-28T04:32:54;101056.88;;;15.82;52.28
71601;BME280;59446;52.192;4.628;2022-12-28T04:35:20;101050.84;;;15.80;52.45
71601;BME280;59446;52.192;4.628;2022-12-28T04:37:45;101049.97;;;15.80;52.46
71601;BME280;59446;52.192;4.628;2022-12-28T04:40:11;101046.66;;;15.76;52.39
71601;BME280;59446;52.192;4.628;2022-12-28T04:42:36;101039.56;;;15.78;52.42
71601;BME280;59446;52.192;4.628;2022-12-28T04:45:02;101041.41;;;15.76;52.10
71601;BME280;59446;52.192;4.628;2022-12-28T04:47:27;101036.31;;;15.73;52.16
71601;BME280;59446;52.192;4.628;2022-12-28T04:49:52;101035.22;;;15.77;52.50
71601;BME280;59446;52.192;4.628;2022-12-28T04:52:18;101041.19;;;15.81;52.17
71601;BME280;59446;52.192;4.628;2022-12-28T04:54:43;101046.66;;;15.76;52.39
71601;BME280;59446;52.192;4.628;2022-12-28T04:57:09;101036.31;;;15.73;52.46
71601;BME280;59446;52.192;4.628;2022-12-28T04:59:34;101033.75;;;15.71;52.62
71601;BME280;59446;52.192;4.628;2022-12-28T05:01:59;101031.13;;;15.71;52.19
71601;BME280;59446;52.192;4.628;2022-12-28T05:04:25;101025.94;;;15.70;52.59
71601;BME280;59446;52.192;4.628;2022-12-28T05:06:50;101029.50;;;15.69;52.47
71601;BME280;59446;52.192;4.628;2022-12-28T05:09:15;101023.16;;;15.73;52.73
71601;BME280;59446;52.192;4.628;2022-12-28T05:11:43;101018.00;;;15.71;52.20
71601;BME280;59446;52.192;4.628;2022-12-28T05:14:08;101009.34;;;15.69;52.23
71601;BME280;59446;52.192;4.628;2022-12-28T05:16:34;101004.16;;;15.68;52.49
71601;BME280;59446;52.192;4.628;2022-12-28T05:18:59;101021.47;;;15.72;52.37
71601;BME280;59446;52.192;4.628;2022-12-28T05:21:26;101006.78;;;15.68;52.18
71601;BME280;59446;52.192;4.628;2022-12-28T05:23:52;101003.25;;;15.69;52.75
71601;BME280;59446;52.192;4.628;2022-12-28T05:26:20;101011.97;;;15.69;52.13
71601;BME280;59446;52.192;4.628;2022-12-28T05:28:46;101011.91;;;15.71;52.41
71601;BME280;59446;52.192;4.628;2022-12-28T05:31:14;101020.63;;;15.71;52.53
71601;BME280;59446;52.192;4.628;2022-12-28T05:33:40;101013.81;;;15.67;52.46
71601;BME280;59446;52.192;4.628;2022-12-28T05:36:07;101025.22;;;15.66;52.78
71601;BME280;59446;52.192;4.628;2022-12-28T05:38:34;101022.53;;;15.68;52.17
71601;BME280;59446;52.192;4.628;2022-12-28T05:41:10;101019.97;;;15.66;52.60
71601;BME280;59446;52.192;4.628;2022-12-28T05:43:36;101012.03;;;15.68;52.72
71601;BME280;59446;52.192;4.628;2022-12-28T05:46:07;101016.59;;;15.63;52.45
71601;BME280;59446;52.192;4.628;2022-12-28T05:48:35;101009.47;;;15.66;52.26
71601;BME280;59446;52.192;4.628;2022-12-28T05:51:03;101016.53;;;15.64;52.83
71601;BME280;59446;52.192;4.628;2022-12-28T05:53:29;101014.81;;;15.63;52.80
71601;BME280;59446;52.192;4.628;2022-12-28T05:58:37;101018.53;;;15.59;52.82
71601;BME280;59446;52.192;4.628;2022-12-28T06:03:28;101016.66;;;15.61;52.64
71601;BME280;59446;52.192;4.628;2022-12-28T06:05:54;101015.75;;;15.62;52.67
71601;BME280;59446;52.192;4.628;2022-12-28T06:08:19;101016.75;;;15.60;52.11
71601;BME280;59446;52.192;4.628;2022-12-28T06:10:44;101008.94;;;15.58;52.52
71601;BME280;59446;52.192;4.628;2022-12-28T06:13:10;101003.56;;;15.61;52.41
71601;BME280;59446;52.192;4.628;2022-12-28T06:15:35;101000.94;;;15.61;52.61
71601;BME280;59446;52.192;4.628;2022-12-28T06:18:01;101002.69;;;15.61;53.04
71601;BME280;59446;52.192;4.628;2022-12-28T06:20:26;100999.22;;;15.60;52.52
71601;BME280;59446;52.192;4.628;2022-12-28T06:22:51;100998.38;;;15.60;52.33
71601;BME280;59446;52.192;4.628;2022-12-28T06:25:17;101005.19;;;15.64;52.14
71601;BME280;59446;52.192;4.628;2022-12-28T06:27:42;100997.66;;;15.56;52.85
71601;BME280;59446;52.192;4.628;2022-12-28T06:30:08;101001.16;;;15.57;52.43
71601;BME280;59446;52.192;4.628;2022-12-28T06:32:33;100991.41;;;15.59;52.91
71601;BME280;59446;52.192;4.628;2022-12-28T06:34:59;101002.84;;;15.58;52.49
71601;BME280;59446;52.192;4.628;2022-12-28T06:37:26;100991.41;;;15.59;52.69
71601;BME280;59446;52.192;4.628;2022-12-28T06:39:51;100996.75;;;15.57;52.92
71601;BME280;59446;52.192;4.628;2022-12-28T06:42:17;100994.28;;;15.54;52.28
71601;BME280;59446;52.192;4.628;2022-12-28T06:44:42;100993.41;;;15.54;52.44
71601;BME280;59446;52.192;4.628;2022-12-28T06:47:08;101000.50;;;15.52;52.94
71601;BME280;59446;52.192;4.628;2022-12-28T06:49:33;100986.47;;;15.53;52.44
71601;BME280;59446;52.192;4.628;2022-12-28T06:51:58;100994.28;;;15.54;52.46
71601;BME280;59446;52.192;4.628;2022-12-28T06:54:24;100986.41;;;15.54;52.58
71601;BME280;59446;52.192;4.628;2022-12-28T06:56:49;100991.72;;;15.53;52.73
71601;BME280;59446;52.192;4.628;2022-12-28T06:59:14;100989.88;;;15.55;52.95
71601;BME280;59446;52.192;4.628;2022-12-28T07:01:40;100994.41;;;15.51;52.49
71601;BME280;59446;52.192;4.628;2022-12-28T07:04:09;100985.63;;;15.52;52.61
71601;BME280;59446;52.192;4.628;2022-12-28T07:06:40;100989.25;;;15.50;52.52
71601;BME280;59446;52.192;4.628;2022-12-28T07:09:08;100984.75;;;15.52;52.56
71601;BME280;59446;52.192;4.628;2022-12-28T07:11:34;100976.13;;;15.50;52.92
71601;BME280;59446;52.192;4.628;2022-12-28T07:14:00;100984.75;;;15.52;52.34
71601;BME280;59446;52.192;4.628;2022-12-28T07:16:27;100968.09;;;15.53;52.63
71601;BME280;59446;52.192;4.628;2022-12-28T07:18:52;100976.13;;;15.50;52.65
71601;BME280;59446;52.192;4.628;2022-12-28T07:21:21;100979.53;;;15.52;52.96
71601;BME280;59446;52.192;4.628;2022-12-28T07:23:48;100968.09;;;15.53;52.72
71601;BME280;59446;52.192;4.628;2022-12-28T07:26:16;100971.00;;;15.47;52.50
71601;BME280;59446;52.192;4.628;2022-12-28T07:28:44;100985.00;;;15.47;52.43
71601;BME280;59446;52.192;4.628;2022-12-28T07:31:14;100981.50;;;15.47;52.54
71601;BME280;59446;52.192;4.628;2022-12-28T07:33:41;100985.06;;;15.45;52.88
71601;BME280;59446;52.192;4.628;2022-12-28T07:36:09;100986.69;;;15.48;52.93
71601;BME280;59446;52.192;4.628;2022-12-28T07:38:36;100987.63;;;15.47;52.95
71601;BME280;59446;52.192;4.628;2022-12-28T07:41:09;100982.06;;;15.53;53.03
71601;BME280;59446;52.192;4.628;2022-12-28T07:43:35;100979.53;;;15.70;52.94
71601;BME280;59446;52.192;4.628;2022-12-28T07:46:06;100982.34;;;15.66;52.71
71601;BME280;59446;52.192;4.628;2022-12-28T07:48:33;100976.06;;;15.70;52.95
71601;BME280;59446;52.192;4.628;2022-12-28T07:51:11;100981.38;;;15.68;53.18
71601;BME280;59446;52.192;4.628;2022-12-28T07:53:38;100969.88;;;15.71;52.90
71601;BME280;59446;52.192;4.628;2022-12-28T07:56:05;100976.00;;;15.71;52.92
71601;BME280;59446;52.192;4.628;2022-12-28T07:58:31;100982.25;;;15.69;53.17
71601;BME280;59446;52.192;4.628;2022-12-28T08:01:27;100982.25;;;15.69;52.76
71601;BME280;59446;52.192;4.628;2022-12-28T08:03:56;100981.78;;;15.78;52.90
71601;BME280;59446;52.192;4.628;2022-12-28T08:06:22;100971.75;;;15.86;52.57
71601;BME280;59446;52.192;4.628;2022-12-28T08:08:51;100974.28;;;16.06;52.37
71601;BME280;59446;52.192;4.628;2022-12-28T08:11:19;100973.84;;;16.16;52.41
71601;BME280;59446;52.192;4.628;2022-12-28T08:13:47;100981.69;;;16.33;51.94
71601;BME280;59446;52.192;4.628;2022-12-28T08:16:14;100971.69;;;16.41;51.59
71601;BME280;59446;52.192;4.628;2022-12-28T08:18:40;100974.38;;;16.40;52.20
71601;BME280;59446;52.192;4.628;2022-12-28T08:21:12;100971.34;;;16.47;51.77
71601;BME280;59446;52.192;4.628;2022-12-28T08:23:38;100974.00;;;16.64;51.76
71601;BME280;59446;52.192;4.628;2022-12-28T08:26:06;100978.41;;;16.81;51.47
71601;BME280;59446;52.192;4.628;2022-12-28T08:28:32;100965.59;;;16.91;51.09
71601;BME280;59446;52.192;4.628;2022-12-28T08:31:04;100971.63;;;16.93;51.53
71601;BME280;59446;52.192;4.628;2022-12-28T08:33:29;100966.97;;;16.98;51.60
71601;BME280;59446;52.192;4.628;2022-12-28T08:35:55;100969.22;;;17.06;51.43
71601;BME280;59446;52.192;4.628;2022-12-28T08:38:21;100964.81;;;17.22;50.96
71601;BME280;59446;52.192;4.628;2022-12-28T08:40:56;100974.59;;;17.36;51.07
71601;BME280;59446;52.192;4.628;2022-12-28T08:43:21;100965.59;;;17.40;50.72
71601;BME280;59446;52.192;4.628;2022-12-28T08:45:57;100969.16;;;17.39;51.31
71601;BME280;59446;52.192;4.628;2022-12-28T08:48:24;100968.59;;;17.49;50.86
71601;BME280;59446;52.192;4.628;2022-12-28T08:50:50;100960.97;;;17.76;50.63
71601;BME280;59446;52.192;4.628;2022-12-28T08:53:15;100963.31;;;17.97;50.03
71601;BME280;59446;52.192;4.628;2022-12-28T08:55:40;100957.56;;;18.20;49.69
71601;BME280;59446;52.192;4.628;2022-12-28T08:58:06;100949.75;;;18.33;49.36
71601;BME280;59446;52.192;4.628;2022-12-28T09:00:31;100950.03;;;18.58;48.80
71601;BME280;59446;52.192;4.628;2022-12-28T09:02:58;100940.69;;;18.53;48.66
71601;BME280;59446;52.192;4.628;2022-12-28T09:05:23;100946.09;;;18.65;48.27
71601;BME280;59446;52.192;4.628;2022-12-28T09:07:50;100948.06;;;18.76;48.15
71601;BME280;59446;52.192;4.628;2022-12-28T09:10:16;100953.75;;;18.84;48.06
71601;BME280;59446;52.192;4.628;2022-12-28T09:12:41;100952.72;;;18.87;48.09
71601;BME280;59446;52.192;4.628;2022-12-28T09:15:07;100948.25;;;19.01;47.57
71601;BME280;59446;52.192;4.628;2022-12-28T09:17:33;100946.31;;;19.05;47.58
71601;BME280;59446;52.192;4.628;2022-12-28T09:19:58;100948.47;;;19.13;47.31
71601;BME280;59446;52.192;4.628;2022-12-28T09:22:24;100942.03;;;19.17;47.40
71601;BME280;59446;52.192;4.628;2022-12-28T09:24:49;100949.00;;;19.18;47.38
71601;BME280;59446;52.192;4.628;2022-12-28T09:27:14;100949.00;;;19.18;47.34
71601;BME280;59446;52.192;4.628;2022-12-28T09:29:40;100954.59;;;19.13;47.13
71601;BME280;59446;52.192;4.628;2022-12-28T09:32:05;100945.63;;;19.01;47.61
71601;BME280;59446;52.192;4.628;2022-12-28T09:34:30;100946.09;;;18.94;47.83
71601;BME280;59446;52.192;4.628;2022-12-28T09:36:56;100945.63;;;19.01;47.42
71601;BME280;59446;52.192;4.628;2022-12-28T09:39:22;100951.66;;;19.03;47.48
71601;BME280;59446;52.192;4.628;2022-12-28T09:49:41;100942.22;;;19.14;47.38
71601;BME280;59446;52.192;4.628;2022-12-28T09:52:30;100943.69;;;19.46;46.84
71601;BME280;59446;52.192;4.628;2022-12-28T09:55:04;100931.84;;;19.39;46.53
71601;BME280;59446;52.192;4.628;2022-12-28T09:57:36;100925.81;;;19.64;46.27
71601;BME280;59446;52.192;4.628;2022-12-28T10:00:05;100920.53;;;19.64;46.26
71601;BME280;59446;52.192;4.628;2022-12-28T10:02:33;100922.25;;;19.65;46.56
71601;BME280;59446;52.192;4.628;2022-12-28T10:05:01;100916.91;;;19.79;46.07
71601;BME280;59446;52.192;4.628;2022-12-28T10:07:26;100923.69;;;19.56;46.68
71601;BME280;59446;52.192;4.628;2022-12-28T10:09:52;100913.91;;;19.71;46.64
71601;BME280;59446;52.192;4.628;2022-12-28T10:12:21;100919.84;;;19.75;46.51
71601;BME280;59446;52.192;4.628;2022-12-28T10:14:49;100914.91;;;19.83;46.30
71601;BME280;59446;52.192;4.628;2022-12-28T10:17:20;100914.97;;;19.95;46.19
71601;BME280;59446;52.192;4.628;2022-12-28T10:19:47;100915.13;;;19.92;46.23
71601;BME280;59446;52.192;4.628;2022-12-28T10:22:17;100909.34;;;20.00;46.48
71601;BME280;59446;52.192;4.628;2022-12-28T10:24:44;100915.84;;;20.09;45.90
71601;BME280;59446;52.192;4.628;2022-12-28T10:27:22;100913.31;;;20.07;46.13
71601;BME280;59446;52.192;4.628;2022-12-28T10:29:50;100912.59;;;20.30;45.75
71601;BME280;59446;52.192;4.628;2022-12-28T10:32:15;100915.63;;;20.12;46.24
71601;BME280;59446;52.192;4.628;2022-12-28T10:35:01;100921.59;;;20.28;46.01
71601;BME280;59446;52.192;4.628;2022-12-28T10:37:30;100917.16;;;20.28;45.95
71601;BME280;59446;52.192;4.628;2022-12-28T10:40:01;100921.50;;;20.29;45.76
71601;BME280;59446;52.192;4.628;2022-12-28T10:42:35;100923.91;;;20.20;46.08
71601;BME280;59446;52.192;4.628;2022-12-28T10:45:04;100916.78;;;20.08;46.44
71601;BME280;59446;52.192;4.628;2022-12-28T10:47:40;100907.66;;;19.99;46.86
71601;BME280;59446;52.192;4.628;2022-12-28T10:50:12;100898.41;;;19.79;46.85
71601;BME280;59446;52.192;4.628;2022-12-28T10:52:56;100904.78;;;19.62;47.07
71601;BME280;59446;52.192;4.628;2022-12-28T10:55:30;100905.44;;;19.39;47.88
71601;BME280;59446;52.192;4.628;2022-12-28T10:58:22;100902.03;;;19.37;47.83
71601;BME280;59446;52.192;4.628;2022-12-28T11:00:59;100894.31;;;19.88;46.71
71601;BME280;59446;52.192;4.628;2022-12-28T11:03:28;100890.88;;;20.13;46.08
71601;BME280;59446;52.192;4.628;2022-12-28T11:06:19;100887.53;;;20.23;45.85
71601;BME280;59446;52.192;4.628;2022-12-28T11:08:59;100887.22;;;20.28;46.03
71601;BME280;59446;52.192;4.628;2022-12-28T11:11:25;100882.22;;;20.36;45.80
71601;BME280;59446;52.192;4.628;2022-12-28T11:13:55;100870.50;;;20.27;46.93
71601;BME280;59446;52.192;4.628;2022-12-28T11:16:23;100870.41;;;20.29;47.07
71601;BME280;59446;52.192;4.628;2022-12-28T11:18:48;100864.56;;;20.11;47.90
71601;BME280;59446;52.192;4.628;2022-12-28T11:21:18;100864.41;;;20.00;47.58
71601;BME280;59446;52.192;4.628;2022-12-28T11:23:45;100863.31;;;19.90;49.12
71601;BME280;59446;52.192;4.628;2022-12-28T11:26:12;100859.47;;;19.68;48.57
71601;BME280;59446;52.192;4.628;2022-12-28T11:28:40;100865.88;;;19.52;49.08
71601;BME280;59446;52.192;4.628;2022-12-28T11:31:09;100860.28;;;19.56;48.89
71601;BME280;59446;52.192;4.628;2022-12-28T11:33:43;100847.66;;;19.74;48.23
71601;BME280;59446;52.192;4.628;2022-12-28T11:36:18;100851.91;;;19.77;47.83
71601;BME280;59446;52.192;4.628;2022-12-28T11:38:45;100860.84;;;19.61;48.28
71601;BME280;59446;52.192;4.628;2022-12-28T11:44:08;100849.47;;;19.74;48.13
71601;BME280;59446;52.192;4.628;2022-12-28T11:46:57;100844.25;;;19.72;48.11
71601;BME280;59446;52.192;4.628;2022-12-28T11:49:29;100848.03;;;19.55;48.90
71601;BME280;59446;52.192;4.628;2022-12-28T11:52:33;100850.31;;;19.47;49.67
71601;BME280;59446;52.192;4.628;2022-12-28T11:57:49;100847.09;;;19.69;48.29
71601;BME280;59446;52.192;4.628;2022-12-28T12:02:59;100823.63;;;19.52;48.72
71601;BME280;59446;52.192;4.628;2022-12-28T12:10:42;100832.75;;;19.33;49.38
71601;BME280;59446;52.192;4.628;2022-12-28T12:16:03;100819.78;;;19.43;48.81
71601;BME280;59446;52.192;4.628;2022-12-28T12:18:42;100820.81;;;19.40;48.94
71601;BME280;59446;52.192;4.628;2022-12-28T12:21:08;100801.59;;;19.38;48.97
71601;BME280;59446;52.192;4.628;2022-12-28T12:24:20;100797.47;;;19.34;48.82
71601;BME280;59446;52.192;4.628;2022-12-28T12:27:13;100807.41;;;19.31;48.86
71601;BME280;59446;52.192;4.628;2022-12-28T12:29:43;100792.19;;;19.34;48.90
71601;BME280;59446;52.192;4.628;2022-12-28T12:32:21;100784.97;;;19.24;49.24
71601;BME280;59446;52.192;4.628;2022-12-28T12:34:54;100787.78;;;19.21;49.20
71601;BME280;59446;52.192;4.628;2022-12-28T12:37:46;100767.59;;;19.20;49.48
71601;BME280;59446;52.192;4.628;2022-12-28T12:48:59;100742.25;;;19.17;49.19
71601;BME280;59446;52.192;4.628;2022-12-28T12:51:49;100744.03;;;19.17;49.07
71601;BME280;59446;52.192;4.628;2022-12-28T13:02:33;100723.59;;;20.11;47.21
71601;BME280;59446;52.192;4.628;2022-12-28T13:05:05;100698.41;;;20.18;47.05
71601;BME280;59446;52.192;4.628;2022-12-28T13:07:31;100698.59;;;20.27;46.39
71601;BME280;59446;52.192;4.628;2022-12-28T13:10:00;100686.34;;;20.14;46.74
71601;BME280;59446;52.192;4.628;2022-12-28T13:12:27;100680.75;;;20.18;46.63
71601;BME280;59446;52.192;4.628;2022-12-28T13:14:59;100685.28;;;20.04;47.14
71601;BME280;59446;52.192;4.628;2022-12-28T13:17:26;100676.19;;;19.95;47.51
71601;BME280;59446;52.192;4.628;2022-12-28T13:20:18;100679.19;;;19.78;47.65
71601;BME280;59446;52.192;4.628;2022-12-28T13:22:46;100653.53;;;19.54;48.69
71601;BME280;59446;52.192;4.628;2022-12-28T13:27:48;100647.28;;;19.43;49.24
71601;BME280;59446;52.192;4.628;2022-12-28T13:30:18;100631.63;;;19.39;49.35
71601;BME280;59446;52.192;4.628;2022-12-28T13:32:58;100635.03;;;19.42;49.25
71601;BME280;59446;52.192;4.628;2022-12-28T13:35:30;100632.28;;;19.43;49.01
71601;BME280;59446;52.192;4.628;2022-12-28T13:37:59;100623.59;;;19.41;48.93
71601;BME280;59446;52.192;4.628;2022-12-28T13:40:27;100617.59;;;19.39;49.03
71601;BME280;59446;52.192;4.628;2022-12-28T13:45:39;100609.03;;;19.48;49.04
71601;BME280;59446;52.192;4.628;2022-12-28T13:48:04;100605.22;;;19.39;49.14
71601;BME280;59446;52.192;4.628;2022-12-28T13:50:32;100585.38;;;19.47;48.83
71601;BME280;59446;52.192;4.628;2022-12-28T13:53:04;100584.13;;;19.52;48.74
71601;BME280;59446;52.192;4.628;2022-12-28T13:58:00;100558.94;;;19.47;49.07
71601;BME280;59446;52.192;4.628;2022-12-28T14:00:29;100556.41;;;19.45;49.07
71601;BME280;59446;52.192;4.628;2022-12-28T14:02:57;100562.97;;;19.39;49.14
71601;BME280;59446;52.192;4.628;2022-12-28T14:05:25;100550.19;;;19.46;49.22
71601;BME280;59446;52.192;4.628;2022-12-28T14:07:52;100539.63;;;19.46;49.14
71601;BME280;59446;52.192;4.628;2022-12-28T14:10:19;100536.75;;;19.49;48.88
71601;BME280;59446;52.192;4.628;2022-12-28T14:12:46;100534.34;;;19.46;48.88
71601;BME280;59446;52.192;4.628;2022-12-28T14:15:12;100535.19;;;19.47;48.75
71601;BME280;59446;52.192;4.628;2022-12-28T14:17:39;100527.06;;;19.37;49.64
71601;BME280;59446;52.192;4.628;2022-12-28T14:20:05;100526.41;;;19.46;49.23
71601;BME280;59446;52.192;4.628;2022-12-28T14:22:34;100520.06;;;19.49;49.10